sensor_id;sensor_type;location;lat;lon;timestamp;P1;durP1;ratioP1;P2;durP2;ratioP2
79149;SDS011;68563;45.644;13.782;2023-07-02T00:00:05;9.10;;;5.57;;
79149;SDS011;68563;45.644;13.782;2023-07-02T00:02:32;8.27;;;6.10;;
79149;SDS011;68563;45.644;13.782;2023-07-02T00:04:58;7.97;;;5.45;;
79149;SDS011;68563;45.644;13.782;2023-07-02T00:07:23;7.20;;;5.50;;
79149;SDS011;68563;45.644;13.782;2023-07-02T00:09:50;7.72;;;5.65;;
79149;SDS011;68563;45.644;13.782;2023-07-02T00:12:16;9.00;;;5.95;;
79149;SDS011;68563;45.644;13.782;2023-07-02T00:14:42;9.88;;;6.13;;
79149;SDS011;68563;45.644;13.782;2023-07-02T00:17:07;7.90;;;5.53;;
79149;SDS011;68563;45.644;13.782;2023-07-02T00:19:32;7.50;;;5.65;;
79149;SDS011;68563;45.644;13.782;2023-07-02T00:21:58;8.15;;;5.47;;
79149;SDS011;68563;45.644;13.782;2023-07-02T00:24:24;10.13;;;5.78;;
79149;SDS011;68563;45.644;13.782;2023-07-02T00:26:49;8.43;;;5.80;;
79149;SDS011;68563;45.644;13.782;2023-07-02T00:29:14;8.15;;;5.53;;
79149;SDS011;68563;45.644;13.782;2023-07-02T00:31:40;8.50;;;5.32;;
79149;SDS011;68563;45.644;13.782;2023-07-02T00:34:05;8.80;;;6.00;;
79149;SDS011;68563;45.644;13.782;2023-07-02T00:36:31;8.23;;;5.43;;
79149;SDS011;68563;45.644;13.782;2023-07-02T00:38:57;7.10;;;5.28;;
79149;SDS011;68563;45.644;13.782;2023-07-02T00:41:23;8.52;;;5.70;;
79149;SDS011;68563;45.644;13.782;2023-07-02T00:43:49;9.45;;;5.70;;
79149;SDS011;68563;45.644;13.782;2023-07-02T00:46:18;6.88;;;5.00;;
79149;SDS011;68563;45.644;13.782;2023-07-02T00:48:48;8.50;;;5.80;;
79149;SDS011;68563;45.644;13.782;2023-07-02T00:51:15;7.68;;;5.45;;
79149;SDS011;68563;45.644;13.782;2023-07-02T00:53:45;9.85;;;6.03;;
79149;SDS011;68563;45.644;13.782;2023-07-02T00:56:11;8.05;;;5.57;;
79149;SDS011;68563;45.644;13.782;2023-07-02T00:58:40;10.15;;;5.88;;
79149;SDS011;68563;45.644;13.782;2023-07-02T01:01:22;9.80;;;5.82;;
79149;SDS011;68563;45.644;13.782;2023-07-02T01:04:00;7.70;;;5.60;;
79149;SDS011;68563;45.644;13.782;2023-07-02T01:08:57;9.65;;;5.57;;
79149;SDS011;68563;45.644;13.782;2023-07-02T01:11:28;8.40;;;5.50;;
79149;SDS011;68563;45.644;13.782;2023-07-02T01:13:59;8.73;;;6.18;;
79149;SDS011;68563;45.644;13.782;2023-07-02T01:16:30;6.97;;;5.28;;
79149;SDS011;68563;45.644;13.782;2023-07-02T01:18:58;7.43;;;5.45;;
79149;SDS011;68563;45.644;13.782;2023-07-02T01:21:28;7.55;;;5.15;;
79149;SDS011;68563;45.644;13.782;2023-07-02T01:23:54;9.00;;;5.85;;
79149;SDS011;68563;45.644;13.782;2023-07-02T01:26:19;7.53;;;5.40;;
79149;SDS011;68563;45.644;13.782;2023-07-02T01:28:45;8.65;;;5.57;;
79149;SDS011;68563;45.644;13.782;2023-07-02T01:31:10;7.45;;;5.03;;
79149;SDS011;68563;45.644;13.782;2023-07-02T01:33:36;7.70;;;5.25;;
79149;SDS011;68563;45.644;13.782;2023-07-02T01:36:01;6.88;;;4.93;;
79149;SDS011;68563;45.644;13.782;2023-07-02T01:38:27;7.28;;;4.88;;
79149;SDS011;68563;45.644;13.782;2023-07-02T01:40:52;7.43;;;5.32;;
79149;SDS011;68563;45.644;13.782;2023-07-02T01:43:18;7.07;;;5.28;;
79149;SDS011;68563;45.644;13.782;2023-07-02T01:45:43;7.35;;;5.13;;
79149;SDS011;68563;45.644;13.782;2023-07-02T01:48:09;9.32;;;5.57;;
79149;SDS011;68563;45.644;13.782;2023-07-02T01:50:34;8.88;;;5.28;;
79149;SDS011;68563;45.644;13.782;2023-07-02T01:52:59;7.47;;;5.38;;
79149;SDS011;68563;45.644;13.782;2023-07-02T01:55:25;7.10;;;5.40;;
79149;SDS011;68563;45.644;13.782;2023-07-02T01:57:50;7.65;;;5.57;;
79149;SDS011;68563;45.644;13.782;2023-07-02T02:00:15;6.82;;;5.15;;
79149;SDS011;68563;45.644;13.782;2023-07-02T02:02:42;8.23;;;5.30;;
79149;SDS011;68563;45.644;13.782;2023-07-02T02:05:08;7.47;;;5.13;;
79149;SDS011;68563;45.644;13.782;2023-07-02T02:07:35;9.00;;;5.57;;
79149;SDS011;68563;45.644;13.782;2023-07-02T02:10:02;7.85;;;4.93;;
79149;SDS011;68563;45.644;13.782;2023-07-02T02:12:29;6.68;;;4.97;;
79149;SDS011;68563;45.644;13.782;2023-07-02T02:14:55;7.90;;;5.32;;
79149;SDS011;68563;45.644;13.782;2023-07-02T02:17:21;7.78;;;5.32;;
79149;SDS011;68563;45.644;13.782;2023-07-02T02:19:46;7.70;;;5.00;;
79149;SDS011;68563;45.644;13.782;2023-07-02T02:22:11;8.45;;;5.40;;
79149;SDS011;68563;45.644;13.782;2023-07-02T02:24:37;6.78;;;5.10;;
79149;SDS011;68563;45.644;13.782;2023-07-02T02:27:02;8.65;;;5.40;;
79149;SDS011;68563;45.644;13.782;2023-07-02T02:29:28;6.60;;;5.10;;
79149;SDS011;68563;45.644;13.782;2023-07-02T02:31:53;6.47;;;4.88;;
79149;SDS011;68563;45.644;13.782;2023-07-02T02:34:18;7.35;;;5.03;;
79149;SDS011;68563;45.644;13.782;2023-07-02T02:36:44;8.40;;;5.55;;
79149;SDS011;68563;45.644;13.782;2023-07-02T02:39:09;7.38;;;5.20;;
79149;SDS011;68563;45.644;13.782;2023-07-02T02:41:35;9.98;;;5.30;;
79149;SDS011;68563;45.644;13.782;2023-07-02T02:44:00;7.70;;;5.32;;
79149;SDS011;68563;45.644;13.782;2023-07-02T02:46:25;7.95;;;5.20;;
79149;SDS011;68563;45.644;13.782;2023-07-02T02:48:51;8.23;;;5.25;;
79149;SDS011;68563;45.644;13.782;2023-07-02T02:51:16;7.18;;;5.13;;
79149;SDS011;68563;45.644;13.782;2023-07-02T02:53:42;7.30;;;5.18;;
79149;SDS011;68563;45.644;13.782;2023-07-02T02:56:07;8.70;;;5.70;;
79149;SDS011;68563;45.644;13.782;2023-07-02T02:58:33;7.15;;;4.97;;
79149;SDS011;68563;45.644;13.782;2023-07-02T03:00:58;7.35;;;5.13;;
79149;SDS011;68563;45.644;13.782;2023-07-02T03:03:24;6.57;;;4.80;;
79149;SDS011;68563;45.644;13.782;2023-07-02T03:05:49;7.50;;;5.05;;
79149;SDS011;68563;45.644;13.782;2023-07-02T03:08:15;6.85;;;5.00;;
79149;SDS011;68563;45.644;13.782;2023-07-02T03:10:41;8.23;;;5.30;;
79149;SDS011;68563;45.644;13.782;2023-07-02T03:13:06;7.32;;;5.07;;
79149;SDS011;68563;45.644;13.782;2023-07-02T03:15:32;8.75;;;5.38;;
79149;SDS011;68563;45.644;13.782;2023-07-02T03:17:57;7.75;;;4.85;;
79149;SDS011;68563;45.644;13.782;2023-07-02T03:20:22;8.52;;;5.13;;
79149;SDS011;68563;45.644;13.782;2023-07-02T03:22:48;7.13;;;5.28;;
79149;SDS011;68563;45.644;13.782;2023-07-02T03:25:14;7.25;;;5.05;;
79149;SDS011;68563;45.644;13.782;2023-07-02T03:27:39;7.35;;;5.13;;
79149;SDS011;68563;45.644;13.782;2023-07-02T03:30:05;6.18;;;5.13;;
79149;SDS011;68563;45.644;13.782;2023-07-02T03:32:31;8.68;;;5.57;;
79149;SDS011;68563;45.644;13.782;2023-07-02T03:34:56;7.45;;;5.10;;
79149;SDS011;68563;45.644;13.782;2023-07-02T03:37:22;7.55;;;5.32;;
79149;SDS011;68563;45.644;13.782;2023-07-02T03:39:47;7.78;;;5.53;;
79149;SDS011;68563;45.644;13.782;2023-07-02T03:42:12;6.97;;;5.30;;
79149;SDS011;68563;45.644;13.782;2023-07-02T03:44:38;7.13;;;5.05;;
79149;SDS011;68563;45.644;13.782;2023-07-02T03:47:03;7.30;;;5.18;;
79149;SDS011;68563;45.644;13.782;2023-07-02T03:49:29;8.35;;;5.20;;
79149;SDS011;68563;45.644;13.782;2023-07-02T03:51:54;9.43;;;5.78;;
79149;SDS011;68563;45.644;13.782;2023-07-02T03:54:19;7.85;;;5.63;;
79149;SDS011;68563;45.644;13.782;2023-07-02T03:56:45;7.47;;;5.20;;
79149;SDS011;68563;45.644;13.782;2023-07-02T03:59:10;8.07;;;5.40;;
79149;SDS011;68563;45.644;13.782;2023-07-02T04:01:36;8.65;;;5.45;;
79149;SDS011;68563;45.644;13.782;2023-07-02T04:04:01;7.05;;;5.25;;
79149;SDS011;68563;45.644;13.782;2023-07-02T04:06:27;7.20;;;5.25;;
79149;SDS011;68563;45.644;13.782;2023-07-02T04:08:52;6.63;;;4.90;;
79149;SDS011;68563;45.644;13.782;2023-07-02T04:11:17;7.68;;;5.22;;
79149;SDS011;68563;45.644;13.782;2023-07-02T04:13:43;8.07;;;5.05;;
79149;SDS011;68563;45.644;13.782;2023-07-02T04:16:08;8.68;;;5.35;;
79149;SDS011;68563;45.644;13.782;2023-07-02T04:18:34;8.57;;;4.95;;
79149;SDS011;68563;45.644;13.782;2023-07-02T04:21:00;7.85;;;4.70;;
79149;SDS011;68563;45.644;13.782;2023-07-02T04:23:26;7.03;;;5.10;;
79149;SDS011;68563;45.644;13.782;2023-07-02T04:25:51;7.60;;;4.93;;
79149;SDS011;68563;45.644;13.782;2023-07-02T04:28:17;7.72;;;5.53;;
79149;SDS011;68563;45.644;13.782;2023-07-02T04:30:43;7.50;;;4.82;;
79149;SDS011;68563;45.644;13.782;2023-07-02T04:33:08;7.00;;;5.10;;
79149;SDS011;68563;45.644;13.782;2023-07-02T04:35:34;7.50;;;5.15;;
79149;SDS011;68563;45.644;13.782;2023-07-02T04:38:00;7.78;;;5.28;;
79149;SDS011;68563;45.644;13.782;2023-07-02T04:40:26;6.57;;;4.88;;
79149;SDS011;68563;45.644;13.782;2023-07-02T04:42:52;8.18;;;5.28;;
79149;SDS011;68563;45.644;13.782;2023-07-02T04:45:23;7.68;;;5.30;;
79149;SDS011;68563;45.644;13.782;2023-07-02T04:47:49;9.05;;;5.55;;
79149;SDS011;68563;45.644;13.782;2023-07-02T04:50:14;8.27;;;5.93;;
79149;SDS011;68563;45.644;13.782;2023-07-02T04:52:39;7.10;;;5.25;;
79149;SDS011;68563;45.644;13.782;2023-07-02T04:55:05;7.63;;;5.28;;
79149;SDS011;68563;45.644;13.782;2023-07-02T04:57:31;7.38;;;5.60;;
79149;SDS011;68563;45.644;13.782;2023-07-02T04:59:57;7.13;;;5.15;;
79149;SDS011;68563;45.644;13.782;2023-07-02T05:02:22;6.88;;;5.10;;
79149;SDS011;68563;45.644;13.782;2023-07-02T05:04:48;8.35;;;5.68;;
79149;SDS011;68563;45.644;13.782;2023-07-02T05:07:13;7.45;;;5.05;;
79149;SDS011;68563;45.644;13.782;2023-07-02T05:09:38;6.68;;;4.90;;
79149;SDS011;68563;45.644;13.782;2023-07-02T05:12:04;8.68;;;5.10;;
79149;SDS011;68563;45.644;13.782;2023-07-02T05:14:29;7.43;;;4.90;;
79149;SDS011;68563;45.644;13.782;2023-07-02T05:16:55;7.63;;;5.13;;
79149;SDS011;68563;45.644;13.782;2023-07-02T05:19:20;8.60;;;5.75;;
79149;SDS011;68563;45.644;13.782;2023-07-02T05:21:46;11.27;;;5.93;;
79149;SDS011;68563;45.644;13.782;2023-07-02T05:24:11;8.57;;;5.70;;
79149;SDS011;68563;45.644;13.782;2023-07-02T05:26:36;7.68;;;5.38;;
79149;SDS011;68563;45.644;13.782;2023-07-02T05:29:02;8.15;;;5.63;;
79149;SDS011;68563;45.644;13.782;2023-07-02T05:31:27;8.18;;;5.70;;
79149;SDS011;68563;45.644;13.782;2023-07-02T05:33:53;7.25;;;5.30;;
79149;SDS011;68563;45.644;13.782;2023-07-02T05:36:19;9.05;;;5.43;;
79149;SDS011;68563;45.644;13.782;2023-07-02T05:38:45;8.98;;;6.00;;
79149;SDS011;68563;45.644;13.782;2023-07-02T05:41:10;6.65;;;5.13;;
79149;SDS011;68563;45.644;13.782;2023-07-02T05:43:36;8.07;;;5.35;;
79149;SDS011;68563;45.644;13.782;2023-07-02T05:46:01;8.13;;;5.40;;
79149;SDS011;68563;45.644;13.782;2023-07-02T05:48:26;7.50;;;5.07;;
79149;SDS011;68563;45.644;13.782;2023-07-02T05:50:52;7.47;;;5.25;;
79149;SDS011;68563;45.644;13.782;2023-07-02T05:53:18;6.82;;;5.30;;
79149;SDS011;68563;45.644;13.782;2023-07-02T05:55:43;7.95;;;5.18;;
79149;SDS011;68563;45.644;13.782;2023-07-02T05:58:09;8.75;;;5.78;;
79149;SDS011;68563;45.644;13.782;2023-07-02T06:00:35;8.30;;;5.75;;
79149;SDS011;68563;45.644;13.782;2023-07-02T06:03:00;8.10;;;5.32;;
79149;SDS011;68563;45.644;13.782;2023-07-02T06:05:26;9.25;;;5.80;;
79149;SDS011;68563;45.644;13.782;2023-07-02T06:07:51;8.02;;;5.30;;
79149;SDS011;68563;45.644;13.782;2023-07-02T06:10:17;8.10;;;5.47;;
79149;SDS011;68563;45.644;13.782;2023-07-02T06:12:42;8.25;;;5.45;;
79149;SDS011;68563;45.644;13.782;2023-07-02T06:15:08;8.20;;;5.80;;
79149;SDS011;68563;45.644;13.782;2023-07-02T06:17:34;7.85;;;5.40;;
79149;SDS011;68563;45.644;13.782;2023-07-02T06:19:59;8.73;;;5.90;;
79149;SDS011;68563;45.644;13.782;2023-07-02T06:22:28;6.93;;;5.13;;
79149;SDS011;68563;45.644;13.782;2023-07-02T06:24:53;9.07;;;5.72;;
79149;SDS011;68563;45.644;13.782;2023-07-02T06:27:18;7.95;;;5.75;;
79149;SDS011;68563;45.644;13.782;2023-07-02T06:29:44;8.13;;;5.35;;
79149;SDS011;68563;45.644;13.782;2023-07-02T06:32:09;7.95;;;5.20;;
79149;SDS011;68563;45.644;13.782;2023-07-02T06:34:35;9.23;;;4.97;;
79149;SDS011;68563;45.644;13.782;2023-07-02T06:37:01;8.48;;;5.50;;
79149;SDS011;68563;45.644;13.782;2023-07-02T06:39:26;8.25;;;5.30;;
79149;SDS011;68563;45.644;13.782;2023-07-02T06:41:52;9.20;;;5.85;;
79149;SDS011;68563;45.644;13.782;2023-07-02T06:44:17;9.82;;;5.95;;
79149;SDS011;68563;45.644;13.782;2023-07-02T06:46:45;10.38;;;6.22;;
79149;SDS011;68563;45.644;13.782;2023-07-02T06:49:11;11.82;;;5.78;;
79149;SDS011;68563;45.644;13.782;2023-07-02T06:51:36;7.90;;;5.95;;
79149;SDS011;68563;45.644;13.782;2023-07-02T06:54:01;8.77;;;6.18;;
79149;SDS011;68563;45.644;13.782;2023-07-02T06:56:27;6.82;;;5.63;;
79149;SDS011;68563;45.644;13.782;2023-07-02T06:58:52;10.70;;;5.68;;
79149;SDS011;68563;45.644;13.782;2023-07-02T07:01:18;7.60;;;5.40;;
79149;SDS011;68563;45.644;13.782;2023-07-02T07:03:43;9.18;;;5.57;;
79149;SDS011;68563;45.644;13.782;2023-07-02T07:06:08;7.22;;;4.93;;
79149;SDS011;68563;45.644;13.782;2023-07-02T07:08:36;7.72;;;5.30;;
79149;SDS011;68563;45.644;13.782;2023-07-02T07:11:02;11.05;;;5.97;;
79149;SDS011;68563;45.644;13.782;2023-07-02T07:13:28;9.05;;;6.70;;
79149;SDS011;68563;45.644;13.782;2023-07-02T07:15:54;9.60;;;6.38;;
79149;SDS011;68563;45.644;13.782;2023-07-02T07:18:20;7.97;;;5.88;;
79149;SDS011;68563;45.644;13.782;2023-07-02T07:20:45;8.52;;;6.47;;
79149;SDS011;68563;45.644;13.782;2023-07-02T07:23:11;12.60;;;7.38;;
79149;SDS011;68563;45.644;13.782;2023-07-02T07:25:36;9.15;;;7.15;;
79149;SDS011;68563;45.644;13.782;2023-07-02T07:28:01;10.15;;;6.95;;
79149;SDS011;68563;45.644;13.782;2023-07-02T07:30:27;8.68;;;6.50;;
79149;SDS011;68563;45.644;13.782;2023-07-02T07:32:53;8.77;;;6.70;;
79149;SDS011;68563;45.644;13.782;2023-07-02T07:35:20;8.05;;;6.18;;
79149;SDS011;68563;45.644;13.782;2023-07-02T07:37:46;8.13;;;6.25;;
79149;SDS011;68563;45.644;13.782;2023-07-02T07:40:13;13.43;;;6.65;;
79149;SDS011;68563;45.644;13.782;2023-07-02T07:42:38;8.93;;;6.28;;
79149;SDS011;68563;45.644;13.782;2023-07-02T07:45:04;9.50;;;6.07;;
79149;SDS011;68563;45.644;13.782;2023-07-02T07:47:30;8.35;;;5.93;;
79149;SDS011;68563;45.644;13.782;2023-07-02T07:49:56;8.68;;;6.10;;
79149;SDS011;68563;45.644;13.782;2023-07-02T07:52:21;9.18;;;6.22;;
79149;SDS011;68563;45.644;13.782;2023-07-02T07:54:46;10.10;;;6.35;;
79149;SDS011;68563;45.644;13.782;2023-07-02T07:57:12;10.00;;;6.50;;
79149;SDS011;68563;45.644;13.782;2023-07-02T07:59:38;9.45;;;6.70;;
79149;SDS011;68563;45.644;13.782;2023-07-02T08:02:03;10.25;;;5.85;;
79149;SDS011;68563;45.644;13.782;2023-07-02T08:04:29;7.75;;;5.85;;
79149;SDS011;68563;45.644;13.782;2023-07-02T08:06:54;8.23;;;6.65;;
79149;SDS011;68563;45.644;13.782;2023-07-02T08:09:21;13.15;;;7.50;;
79149;SDS011;68563;45.644;13.782;2023-07-02T08:11:47;8.85;;;7.30;;
79149;SDS011;68563;45.644;13.782;2023-07-02T08:14:13;11.57;;;9.52;;
79149;SDS011;68563;45.644;13.782;2023-07-02T08:16:38;10.95;;;9.50;;
79149;SDS011;68563;45.644;13.782;2023-07-02T08:19:04;9.88;;;8.05;;
79149;SDS011;68563;45.644;13.782;2023-07-02T08:21:30;7.90;;;6.75;;
79149;SDS011;68563;45.644;13.782;2023-07-02T08:23:55;10.00;;;5.60;;
79149;SDS011;68563;45.644;13.782;2023-07-02T08:26:22;8.00;;;6.07;;
79149;SDS011;68563;45.644;13.782;2023-07-02T08:28:48;12.07;;;6.40;;
79149;SDS011;68563;45.644;13.782;2023-07-02T08:31:13;8.38;;;5.68;;
79149;SDS011;68563;45.644;13.782;2023-07-02T08:33:38;7.53;;;5.70;;
79149;SDS011;68563;45.644;13.782;2023-07-02T08:36:04;7.75;;;5.65;;
79149;SDS011;68563;45.644;13.782;2023-07-02T08:38:29;7.47;;;5.88;;
79149;SDS011;68563;45.644;13.782;2023-07-02T08:40:55;8.98;;;5.88;;
79149;SDS011;68563;45.644;13.782;2023-07-02T08:43:20;8.23;;;5.50;;
79149;SDS011;68563;45.644;13.782;2023-07-02T08:45:46;7.63;;;5.30;;
79149;SDS011;68563;45.644;13.782;2023-07-02T08:48:12;9.15;;;5.70;;
79149;SDS011;68563;45.644;13.782;2023-07-02T08:50:37;7.80;;;5.38;;
79149;SDS011;68563;45.644;13.782;2023-07-02T08:53:03;8.40;;;5.50;;
79149;SDS011;68563;45.644;13.782;2023-07-02T08:55:28;7.22;;;5.40;;
79149;SDS011;68563;45.644;13.782;2023-07-02T08:57:56;7.22;;;5.40;;
79149;SDS011;68563;45.644;13.782;2023-07-02T09:00:25;9.48;;;5.57;;
79149;SDS011;68563;45.644;13.782;2023-07-02T09:02:56;7.60;;;5.60;;
79149;SDS011;68563;45.644;13.782;2023-07-02T09:05:21;8.77;;;6.13;;
79149;SDS011;68563;45.644;13.782;2023-07-02T09:07:47;8.25;;;5.53;;
79149;SDS011;68563;45.644;13.782;2023-07-02T09:10:34;7.03;;;5.03;;
79149;SDS011;68563;45.644;13.782;2023-07-02T09:13:06;8.75;;;6.13;;
79149;SDS011;68563;45.644;13.782;2023-07-02T09:15:38;7.85;;;5.53;;
79149;SDS011;68563;45.644;13.782;2023-07-02T09:20:59;10.02;;;6.20;;
79149;SDS011;68563;45.644;13.782;2023-07-02T09:23:36;10.90;;;6.43;;
79149;SDS011;68563;45.644;13.782;2023-07-02T09:26:02;7.25;;;5.38;;
79149;SDS011;68563;45.644;13.782;2023-07-02T09:28:28;7.63;;;5.65;;
79149;SDS011;68563;45.644;13.782;2023-07-02T09:30:56;8.80;;;5.32;;
79149;SDS011;68563;45.644;13.782;2023-07-02T09:33:27;8.45;;;5.97;;
79149;SDS011;68563;45.644;13.782;2023-07-02T09:35:53;8.55;;;6.18;;
79149;SDS011;68563;45.644;13.782;2023-07-02T09:38:19;9.57;;;6.82;;
79149;SDS011;68563;45.644;13.782;2023-07-02T09:40:51;8.65;;;6.32;;
79149;SDS011;68563;45.644;13.782;2023-07-02T09:43:17;9.00;;;7.28;;
79149;SDS011;68563;45.644;13.782;2023-07-02T09:45:47;10.80;;;7.30;;
79149;SDS011;68563;45.644;13.782;2023-07-02T09:48:15;8.75;;;6.00;;
79149;SDS011;68563;45.644;13.782;2023-07-02T09:50:42;7.70;;;5.88;;
79149;SDS011;68563;45.644;13.782;2023-07-02T09:53:09;8.50;;;5.18;;
79149;SDS011;68563;45.644;13.782;2023-07-02T09:55:35;9.93;;;6.40;;
79149;SDS011;68563;45.644;13.782;2023-07-02T09:58:01;8.23;;;5.50;;
79149;SDS011;68563;45.644;13.782;2023-07-02T10:00:27;7.85;;;5.65;;
79149;SDS011;68563;45.644;13.782;2023-07-02T10:02:52;7.63;;;5.90;;
79149;SDS011;68563;45.644;13.782;2023-07-02T10:07:55;12.65;;;7.95;;
79149;SDS011;68563;45.644;13.782;2023-07-02T10:10:27;8.63;;;5.70;;
79149;SDS011;68563;45.644;13.782;2023-07-02T10:12:54;8.82;;;5.50;;
79149;SDS011;68563;45.644;13.782;2023-07-02T10:15:29;6.80;;;5.03;;
79149;SDS011;68563;45.644;13.782;2023-07-02T10:20:38;7.53;;;4.68;;
79149;SDS011;68563;45.644;13.782;2023-07-02T10:23:05;7.25;;;5.70;;
79149;SDS011;68563;45.644;13.782;2023-07-02T10:25:33;7.53;;;5.53;;
79149;SDS011;68563;45.644;13.782;2023-07-02T10:28:16;6.65;;;5.25;;
79149;SDS011;68563;45.644;13.782;2023-07-02T10:30:42;6.47;;;5.00;;
79149;SDS011;68563;45.644;13.782;2023-07-02T10:33:12;7.85;;;5.18;;
79149;SDS011;68563;45.644;13.782;2023-07-02T10:35:43;7.07;;;5.53;;
79149;SDS011;68563;45.644;13.782;2023-07-02T10:38:14;8.48;;;5.72;;
79149;SDS011;68563;45.644;13.782;2023-07-02T10:40:43;7.22;;;5.57;;
79149;SDS011;68563;45.644;13.782;2023-07-02T10:43:09;10.00;;;5.63;;
79149;SDS011;68563;45.644;13.782;2023-07-02T10:45:35;7.70;;;5.43;;
79149;SDS011;68563;45.644;13.782;2023-07-02T10:48:01;8.07;;;5.40;;
79149;SDS011;68563;45.644;13.782;2023-07-02T10:50:29;9.27;;;5.53;;
79149;SDS011;68563;45.644;13.782;2023-07-02T10:52:55;9.73;;;5.50;;
79149;SDS011;68563;45.644;13.782;2023-07-02T10:55:22;8.95;;;5.57;;
79149;SDS011;68563;45.644;13.782;2023-07-02T10:57:49;8.15;;;5.30;;
79149;SDS011;68563;45.644;13.782;2023-07-02T11:00:16;9.15;;;4.93;;
79149;SDS011;68563;45.644;13.782;2023-07-02T11:02:42;7.75;;;4.90;;
79149;SDS011;68563;45.644;13.782;2023-07-02T11:05:08;6.70;;;4.85;;
79149;SDS011;68563;45.644;13.782;2023-07-02T11:07:42;10.40;;;5.10;;
79149;SDS011;68563;45.644;13.782;2023-07-02T11:10:08;6.95;;;5.13;;
79149;SDS011;68563;45.644;13.782;2023-07-02T11:12:34;6.97;;;5.20;;
79149;SDS011;68563;45.644;13.782;2023-07-02T11:15:08;6.70;;;5.35;;
79149;SDS011;68563;45.644;13.782;2023-07-02T11:17:38;5.85;;;5.13;;
79149;SDS011;68563;45.644;13.782;2023-07-02T11:20:10;6.38;;;4.72;;
79149;SDS011;68563;45.644;13.782;2023-07-02T11:22:37;8.77;;;5.25;;
79149;SDS011;68563;45.644;13.782;2023-07-02T11:27:39;8.50;;;5.60;;
79149;SDS011;68563;45.644;13.782;2023-07-02T11:30:06;6.85;;;5.00;;
79149;SDS011;68563;45.644;13.782;2023-07-02T11:32:34;6.90;;;4.85;;
79149;SDS011;68563;45.644;13.782;2023-07-02T11:35:12;6.00;;;4.75;;
79149;SDS011;68563;45.644;13.782;2023-07-02T11:37:37;9.00;;;5.13;;
79149;SDS011;68563;45.644;13.782;2023-07-02T11:40:02;8.10;;;4.70;;
79149;SDS011;68563;45.644;13.782;2023-07-02T11:42:29;8.82;;;4.63;;
79149;SDS011;68563;45.644;13.782;2023-07-02T11:44:55;7.22;;;5.78;;
79149;SDS011;68563;45.644;13.782;2023-07-02T11:47:20;6.28;;;4.97;;
79149;SDS011;68563;45.644;13.782;2023-07-02T11:49:45;5.63;;;4.78;;
79149;SDS011;68563;45.644;13.782;2023-07-02T11:52:11;6.18;;;4.28;;
79149;SDS011;68563;45.644;13.782;2023-07-02T11:54:37;7.00;;;4.65;;
79149;SDS011;68563;45.644;13.782;2023-07-02T11:57:03;6.78;;;4.53;;
79149;SDS011;68563;45.644;13.782;2023-07-02T11:59:32;5.93;;;4.82;;
79149;SDS011;68563;45.644;13.782;2023-07-02T12:01:57;6.68;;;4.65;;
79149;SDS011;68563;45.644;13.782;2023-07-02T12:04:23;7.43;;;4.57;;
79149;SDS011;68563;45.644;13.782;2023-07-02T12:06:48;7.25;;;4.55;;
79149;SDS011;68563;45.644;13.782;2023-07-02T12:09:13;6.57;;;4.15;;
79149;SDS011;68563;45.644;13.782;2023-07-02T12:11:39;7.15;;;4.72;;
79149;SDS011;68563;45.644;13.782;2023-07-02T12:14:04;5.93;;;4.63;;
79149;SDS011;68563;45.644;13.782;2023-07-02T12:16:30;5.90;;;4.65;;
79149;SDS011;68563;45.644;13.782;2023-07-02T12:18:55;6.70;;;4.63;;
79149;SDS011;68563;45.644;13.782;2023-07-02T12:21:20;6.10;;;4.10;;
79149;SDS011;68563;45.644;13.782;2023-07-02T12:23:46;6.57;;;4.32;;
79149;SDS011;68563;45.644;13.782;2023-07-02T12:26:11;5.70;;;4.45;;
79149;SDS011;68563;45.644;13.782;2023-07-02T12:28:37;5.90;;;4.13;;
79149;SDS011;68563;45.644;13.782;2023-07-02T12:31:02;7.55;;;4.35;;
79149;SDS011;68563;45.644;13.782;2023-07-02T12:33:28;7.78;;;4.88;;
79149;SDS011;68563;45.644;13.782;2023-07-02T12:35:53;6.47;;;3.95;;
79149;SDS011;68563;45.644;13.782;2023-07-02T12:38:18;6.10;;;4.15;;
79149;SDS011;68563;45.644;13.782;2023-07-02T12:40:44;5.22;;;3.90;;
79149;SDS011;68563;45.644;13.782;2023-07-02T12:43:09;7.05;;;4.53;;
79149;SDS011;68563;45.644;13.782;2023-07-02T12:45:34;7.47;;;4.63;;
79149;SDS011;68563;45.644;13.782;2023-07-02T12:48:00;7.70;;;4.75;;
79149;SDS011;68563;45.644;13.782;2023-07-02T12:50:25;6.50;;;4.68;;
79149;SDS011;68563;45.644;13.782;2023-07-02T12:52:51;8.00;;;4.85;;
79149;SDS011;68563;45.644;13.782;2023-07-02T12:55:16;6.07;;;4.38;;
79149;SDS011;68563;45.644;13.782;2023-07-02T12:57:41;5.60;;;4.38;;
79149;SDS011;68563;45.644;13.782;2023-07-02T13:00:07;6.75;;;4.40;;
79149;SDS011;68563;45.644;13.782;2023-07-02T13:02:34;5.43;;;4.38;;
79149;SDS011;68563;45.644;13.782;2023-07-02T13:04:59;5.68;;;3.97;;
79149;SDS011;68563;45.644;13.782;2023-07-02T13:07:24;5.63;;;4.13;;
79149;SDS011;68563;45.644;13.782;2023-07-02T13:09:50;6.75;;;4.15;;
79149;SDS011;68563;45.644;13.782;2023-07-02T13:12:16;6.82;;;4.07;;
79149;SDS011;68563;45.644;13.782;2023-07-02T13:14:42;5.78;;;4.25;;
79149;SDS011;68563;45.644;13.782;2023-07-02T13:17:07;5.90;;;3.90;;
79149;SDS011;68563;45.644;13.782;2023-07-02T13:19:33;5.90;;;4.15;;
79149;SDS011;68563;45.644;13.782;2023-07-02T13:22:00;5.78;;;3.72;;
79149;SDS011;68563;45.644;13.782;2023-07-02T13:24:28;5.07;;;3.60;;
79149;SDS011;68563;45.644;13.782;2023-07-02T13:26:59;4.80;;;3.40;;
79149;SDS011;68563;45.644;13.782;2023-07-02T13:29:27;3.90;;;3.00;;
79149;SDS011;68563;45.644;13.782;2023-07-02T13:31:52;3.33;;;2.92;;
79149;SDS011;68563;45.644;13.782;2023-07-02T13:34:18;4.72;;;3.08;;
79149;SDS011;68563;45.644;13.782;2023-07-02T13:36:43;4.10;;;3.40;;
79149;SDS011;68563;45.644;13.782;2023-07-02T13:39:08;4.45;;;3.35;;
79149;SDS011;68563;45.644;13.782;2023-07-02T13:41:34;4.13;;;3.50;;
79149;SDS011;68563;45.644;13.782;2023-07-02T13:43:59;6.43;;;3.72;;
79149;SDS011;68563;45.644;13.782;2023-07-02T13:46:24;7.22;;;3.90;;
79149;SDS011;68563;45.644;13.782;2023-07-02T13:48:50;4.55;;;3.70;;
79149;SDS011;68563;45.644;13.782;2023-07-02T13:51:15;5.60;;;3.67;;
79149;SDS011;68563;45.644;13.782;2023-07-02T13:53:40;6.15;;;3.90;;
79149;SDS011;68563;45.644;13.782;2023-07-02T13:56:06;5.38;;;4.10;;
79149;SDS011;68563;45.644;13.782;2023-07-02T14:01:22;5.65;;;4.00;;
79149;SDS011;68563;45.644;13.782;2023-07-02T14:03:50;5.65;;;3.97;;
79149;SDS011;68563;45.644;13.782;2023-07-02T14:06:16;5.45;;;4.15;;
79149;SDS011;68563;45.644;13.782;2023-07-02T14:08:42;6.72;;;4.53;;
79149;SDS011;68563;45.644;13.782;2023-07-02T14:11:07;5.07;;;4.18;;
79149;SDS011;68563;45.644;13.782;2023-07-02T14:13:33;5.20;;;3.72;;
79149;SDS011;68563;45.644;13.782;2023-07-02T14:15:58;4.25;;;3.30;;
79149;SDS011;68563;45.644;13.782;2023-07-02T14:18:24;5.30;;;3.95;;
79149;SDS011;68563;45.644;13.782;2023-07-02T14:20:50;4.53;;;3.58;;
79149;SDS011;68563;45.644;13.782;2023-07-02T14:23:15;4.80;;;3.58;;
79149;SDS011;68563;45.644;13.782;2023-07-02T14:25:41;4.70;;;3.95;;
79149;SDS011;68563;45.644;13.782;2023-07-02T14:28:06;5.53;;;3.70;;
79149;SDS011;68563;45.644;13.782;2023-07-02T14:30:32;5.60;;;4.25;;
79149;SDS011;68563;45.644;13.782;2023-07-02T14:32:57;4.65;;;3.85;;
79149;SDS011;68563;45.644;13.782;2023-07-02T14:35:23;6.75;;;4.88;;
79149;SDS011;68563;45.644;13.782;2023-07-02T14:37:52;6.03;;;4.07;;
79149;SDS011;68563;45.644;13.782;2023-07-02T14:40:18;5.03;;;4.07;;
79149;SDS011;68563;45.644;13.782;2023-07-02T14:42:43;5.28;;;3.92;;